sensor_id;sensor_type;location;lat;lon;timestamp;temperature;humidity
21121;DHT22;12519;43.318;21.898;2023-12-28T00:00:19;7.1;95.0
21121;DHT22;12519;43.318;21.898;2023-12-28T00:04:55;7.1;95.0
21121;DHT22;12519;43.318;21.898;2023-12-28T00:09:32;7.0;96.0
21121;DHT22;12519;43.318;21.898;2023-12-28T00:14:08;7.0;96.0
21121;DHT22;12519;43.318;21.898;2023-12-28T00:18:44;6.9;96.0
21121;DHT22;12519;43.318;21.898;2023-12-28T00:23:21;6.9;96.0
21121;DHT22;12519;43.318;21.898;2023-12-28T00:27:57;6.8;96.0
21121;DHT22;12519;43.318;21.898;2023-12-28T00:32:34;6.8;96.0
21121;DHT22;12519;43.318;21.898;2023-12-28T00:37:10;6.8;96.0
21121;DHT22;12519;43.318;21.898;2023-12-28T00:41:46;6.6;97.0
21121;DHT22;12519;43.318;21.898;2023-12-28T00:46:23;6.6;97.0
21121;DHT22;12519;43.318;21.898;2023-12-28T00:50:59;6.8;97.0
21121;DHT22;12519;43.318;21.898;2023-12-28T00:55:35;6.8;97.0
21121;DHT22;12519;43.318;21.898;2023-12-28T01:00:14;6.9;96.0
21121;DHT22;12519;43.318;21.898;2023-12-28T01:04:50;6.9;96.0
21121;DHT22;12519;43.318;21.898;2023-12-28T01:09:26;7.3;95.0
21121;DHT22;12519;43.318;21.898;2023-12-28T01:14:02;7.3;95.0
21121;DHT22;12519;43.318;21.898;2023-12-28T01:18:38;7.7;94.0
21121;DHT22;12519;43.318;21.898;2023-12-28T01:23:14;7.7;94.0
21121;DHT22;12519;43.318;21.898;2023-12-28T01:27:51;7.8;94.0
21121;DHT22;12519;43.318;21.898;2023-12-28T01:32:27;7.8;94.0
21121;DHT22;12519;43.318;21.898;2023-12-28T01:37:03;7.8;94.0
21121;DHT22;12519;43.318;21.898;2023-12-28T01:41:39;8.0;93.0
21121;DHT22;12519;43.318;21.898;2023-12-28T01:46:21;8.0;93.0
21121;DHT22;12519;43.318;21.898;2023-12-28T01:51:00;7.8;93.0
21121;DHT22;12519;43.318;21.898;2023-12-28T01:55:36;7.8;93.0
21121;DHT22;12519;43.318;21.898;2023-12-28T02:00:15;7.7;94.0
21121;DHT22;12519;43.318;21.898;2023-12-28T02:04:52;7.7;94.0
21121;DHT22;12519;43.318;21.898;2023-12-28T02:09:29;7.6;94.0
21121;DHT22;12519;43.318;21.898;2023-12-28T02:14:06;7.6;94.0
21121;DHT22;12519;43.318;21.898;2023-12-28T02:18:54;7.5;94.0
21121;DHT22;12519;43.318;21.898;2023-12-28T02:23:33;7.5;94.0
21121;DHT22;12519;43.318;21.898;2023-12-28T02:28:10;7.6;94.0
21121;DHT22;12519;43.318;21.898;2023-12-28T02:33:15;7.6;94.0
21121;DHT22;12519;43.318;21.898;2023-12-28T02:38:09;7.6;94.0
21121;DHT22;12519;43.318;21.898;2023-12-28T02:42:45;7.6;94.0
21121;DHT22;12519;43.318;21.898;2023-12-28T02:47:21;7.6;94.0
21121;DHT22;12519;43.318;21.898;2023-12-28T02:51:57;7.2;95.0
21121;DHT22;12519;43.318;21.898;2023-12-28T02:56:33;7.2;95.0
21121;DHT22;12519;43.318;21.898;2023-12-28T03:01:10;6.9;95.0
21121;DHT22;12519;43.318;21.898;2023-12-28T03:05:46;6.9;95.0
21121;DHT22;12519;43.318;21.898;2023-12-28T03:10:22;6.6;96.0
21121;DHT22;12519;43.318;21.898;2023-12-28T03:14:59;6.6;96.0
21121;DHT22;12519;43.318;21.898;2023-12-28T03:19:36;6.4;97.0
21121;DHT22;12519;43.318;21.898;2023-12-28T03:24:13;6.4;97.0
21121;DHT22;12519;43.318;21.898;2023-12-28T03:28:49;6.8;96.0
21121;DHT22;12519;43.318;21.898;2023-12-28T03:33:25;6.8;96.0
21121;DHT22;12519;43.318;21.898;2023-12-28T03:38:02;6.8;96.0
21121;DHT22;12519;43.318;21.898;2023-12-28T03:42:39;7.1;95.0
21121;DHT22;12519;43.318;21.898;2023-12-28T03:47:15;7.1;95.0
21121;DHT22;12519;43.318;21.898;2023-12-28T03:51:53;6.8;96.0
21121;DHT22;12519;43.318;21.898;2023-12-28T03:56:29;6.8;96.0
21121;DHT22;12519;43.318;21.898;2023-12-28T04:01:05;6.6;96.0
21121;DHT22;12519;43.318;21.898;2023-12-28T04:05:43;6.6;96.0
21121;DHT22;12519;43.318;21.898;2023-12-28T04:10:33;6.8;96.0
21121;DHT22;12519;43.318;21.898;2023-12-28T04:15:09;6.8;96.0
21121;DHT22;12519;43.318;21.898;2023-12-28T04:19:46;7.1;96.0
21121;DHT22;12519;43.318;21.898;2023-12-28T04:24:22;7.1;96.0
21121;DHT22;12519;43.318;21.898;2023-12-28T04:28:59;7.2;95.0
21121;DHT22;12519;43.318;21.898;2023-12-28T04:33:35;7.2;95.0
21121;DHT22;12519;43.318;21.898;2023-12-28T04:38:13;7.2;94.0
21121;DHT22;12519;43.318;21.898;2023-12-28T04:42:49;7.2;94.0
21121;DHT22;12519;43.318;21.898;2023-12-28T04:47:25;7.2;94.0
21121;DHT22;12519;43.318;21.898;2023-12-28T04:52:03;7.0;94.0
21121;DHT22;12519;43.318;21.898;2023-12-28T04:56:40;7.0;94.0
21121;DHT22;12519;43.318;21.898;2023-12-28T05:01:16;6.9;94.0
21121;DHT22;12519;43.318;21.898;2023-12-28T05:05:52;6.9;94.0
21121;DHT22;12519;43.318;21.898;2023-12-28T05:10:28;6.8;95.0
21121;DHT22;12519;43.318;21.898;2023-12-28T05:15:07;6.8;95.0
21121;DHT22;12519;43.318;21.898;2023-12-28T05:19:43;6.6;95.0
21121;DHT22;12519;43.318;21.898;2023-12-28T05:24:19;6.6;95.0
21121;DHT22;12519;43.318;21.898;2023-12-28T05:28:55;6.5;96.0
21121;DHT22;12519;43.318;21.898;2023-12-28T05:33:32;6.5;96.0
21121;DHT22;12519;43.318;21.898;2023-12-28T05:38:08;6.5;96.0
21121;DHT22;12519;43.318;21.898;2023-12-28T05:42:44;6.4;96.0
21121;DHT22;12519;43.318;21.898;2023-12-28T05:47:21;6.4;96.0
21121;DHT22;12519;43.318;21.898;2023-12-28T05:51:57;7.6;96.0
21121;DHT22;12519;43.318;21.898;2023-12-28T05:56:34;7.6;96.0
21121;DHT22;12519;43.318;21.898;2023-12-28T06:01:10;8.9;95.0
21121;DHT22;12519;43.318;21.898;2023-12-28T06:05:47;8.9;95.0
21121;DHT22;12519;43.318;21.898;2023-12-28T06:10:23;8.0;95.0
21121;DHT22;12519;43.318;21.898;2023-12-28T06:14:59;8.0;95.0
21121;DHT22;12519;43.318;21.898;2023-12-28T06:19:36;7.0;95.0
21121;DHT22;12519;43.318;21.898;2023-12-28T06:24:12;7.0;95.0
21121;DHT22;12519;43.318;21.898;2023-12-28T06:28:48;7.0;95.0
21121;DHT22;12519;43.318;21.898;2023-12-28T06:33:24;7.0;95.0
21121;DHT22;12519;43.318;21.898;2023-12-28T06:38:00;7.0;95.0
21121;DHT22;12519;43.318;21.898;2023-12-28T06:42:36;6.9;95.0
21121;DHT22;12519;43.318;21.898;2023-12-28T06:47:12;6.9;95.0
21121;DHT22;12519;43.318;21.898;2023-12-28T06:51:48;7.2;95.0
21121;DHT22;12519;43.318;21.898;2023-12-28T06:56:25;7.2;95.0
21121;DHT22;12519;43.318;21.898;2023-12-28T07:01:04;7.4;95.0
21121;DHT22;12519;43.318;21.898;2023-12-28T07:05:41;7.4;95.0
21121;DHT22;12519;43.318;21.898;2023-12-28T07:10:17;6.6;96.0
21121;DHT22;12519;43.318;21.898;2023-12-28T07:14:53;6.6;96.0
21121;DHT22;12519;43.318;21.898;2023-12-28T07:19:30;5.9;98.0
21121;DHT22;12519;43.318;21.898;2023-12-28T07:24:06;5.9;98.0
21121;DHT22;12519;43.318;21.898;2023-12-28T07:28:42;5.9;98.0
21121;DHT22;12519;43.318;21.898;2023-12-28T07:33:20;5.9;98.0
21121;DHT22;12519;43.318;21.898;2023-12-28T07:37:56;5.9;98.0
21121;DHT22;12519;43.318;21.898;2023-12-28T09:52:01;12.2;86.0
21121;DHT22;12519;43.318;21.898;2023-12-28T09:56:40;12.2;86.0
21121;DHT22;12519;43.318;21.898;2023-12-28T10:01:20;12.2;86.0
21121;DHT22;12519;43.318;21.898;2023-12-28T10:05:56;12.2;86.0
21121;DHT22;12519;43.318;21.898;2023-12-28T10:10:33;12.2;86.0
21121;DHT22;12519;43.318;21.898;2023-12-28T10:15:10;12.2;86.0
21121;DHT22;12519;43.318;21.898;2023-12-28T19:31:18;10.7;86.0
21121;DHT22;12519;43.318;21.898;2023-12-28T19:35:54;10.7;86.0
21121;DHT22;12519;43.318;21.898;2023-12-28T19:40:30;10.7;86.0
21121;DHT22;12519;43.318;21.898;2023-12-28T19:45:08;10.7;86.0
21121;DHT22;12519;43.318;21.898;2023-12-28T19:49:44;10.7;86.0
21121;DHT22;12519;43.318;21.898;2023-12-28T19:54:20;10.6;86.0
21121;DHT22;12519;43.318;21.898;2023-12-28T19:58:57;10.6;86.0
21121;DHT22;12519;43.318;21.898;2023-12-28T20:03:33;10.5;87.0
21121;DHT22;12519;43.318;21.898;2023-12-28T20:08:09;10.5;87.0
21121;DHT22;12519;43.318;21.898;2023-12-28T20:12:45;10.4;87.0
21121;DHT22;12519;43.318;21.898;2023-12-28T20:17:21;10.4;87.0
21121;DHT22;12519;43.318;21.898;2023-12-28T20:21:58;10.4;87.0
21121;DHT22;12519;43.318;21.898;2023-12-28T20:26:34;10.4;87.0
21121;DHT22;12519;43.318;21.898;2023-12-28T20:31:16;10.3;87.0
21121;DHT22;12519;43.318;21.898;2023-12-28T20:35:53;10.3;87.0
21121;DHT22;12519;43.318;21.898;2023-12-28T20:40:29;10.2;87.0
21121;DHT22;12519;43.318;21.898;2023-12-28T20:45:08;10.2;87.0
21121;DHT22;12519;43.318;21.898;2023-12-28T20:49:45;10.2;87.0
21121;DHT22;12519;43.318;21.898;2023-12-28T20:54:21;10.0;87.0
21121;DHT22;12519;43.318;21.898;2023-12-28T20:58:58;10.0;87.0
21121;DHT22;12519;43.318;21.898;2023-12-28T21:03:34;9.7;88.0
21121;DHT22;12519;43.318;21.898;2023-12-28T21:08:10;9.7;88.0
21121;DHT22;12519;43.318;21.898;2023-12-28T21:12:46;9.6;89.0
21121;DHT22;12519;43.318;21.898;2023-12-28T21:17:22;9.6;89.0
21121;DHT22;12519;43.318;21.898;2023-12-28T21:21:59;9.4;90.0
21121;DHT22;12519;43.318;21.898;2023-12-28T21:26:35;9.4;90.0
21121;DHT22;12519;43.318;21.898;2023-12-28T21:31:11;9.4;91.0
21121;DHT22;12519;43.318;21.898;2023-12-28T21:35:47;9.4;91.0
21121;DHT22;12519;43.318;21.898;2023-12-28T21:40:23;9.5;93.0
21121;DHT22;12519;43.318;21.898;2023-12-28T21:45:00;9.5;93.0
21121;DHT22;12519;43.318;21.898;2023-12-28T21:49:37;9.5;93.0
21121;DHT22;12519;43.318;21.898;2023-12-28T21:54:13;9.6;91.0
21121;DHT22;12519;43.318;21.898;2023-12-28T21:58:49;9.6;91.0
21121;DHT22;12519;43.318;21.898;2023-12-28T22:03:25;9.7;90.0
21121;DHT22;12519;43.318;21.898;2023-12-28T22:08:03;9.7;90.0
21121;DHT22;12519;43.318;21.898;2023-12-28T22:12:40;9.4;90.0
21121;DHT22;12519;43.318;21.898;2023-12-28T22:17:16;9.4;90.0
21121;DHT22;12519;43.318;21.898;2023-12-28T22:21:54;9.2;90.0
21121;DHT22;12519;43.318;21.898;2023-12-28T22:26:30;9.2;90.0
21121;DHT22;12519;43.318;21.898;2023-12-28T22:31:06;9.6;92.0
21121;DHT22;12519;43.318;21.898;2023-12-28T22:35:42;9.6;92.0
21121;DHT22;12519;43.318;21.898;2023-12-28T22:40:18;9.6;92.0
21121;DHT22;12519;43.318;21.898;2023-12-28T22:44:55;10.0;93.0
21121;DHT22;12519;43.318;21.898;2023-12-28T22:49:31;10.0;93.0
21121;DHT22;12519;43.318;21.898;2023-12-28T22:54:07;10.4;90.0
21121;DHT22;12519;43.318;21.898;2023-12-28T22:58:43;10.4;90.0
21121;DHT22;12519;43.318;21.898;2023-12-28T23:03:20;10.7;88.0
21121;DHT22;12519;43.318;21.898;2023-12-28T23:07:56;10.7;88.0
21121;DHT22;12519;43.318;21.898;2023-12-28T23:12:33;10.2;88.0
21121;DHT22;12519;43.318;21.898;2023-12-28T23:17:09;10.2;88.0
21121;DHT22;12519;43.318;21.898;2023-12-28T23:21:45;9.8;89.0
21121;DHT22;12519;43.318;21.898;2023-12-28T23:26:22;9.8;89.0
21121;DHT22;12519;43.318;21.898;2023-12-28T23:30:59;9.4;89.0
21121;DHT22;12519;43.318;21.898;2023-12-28T23:35:35;9.4;89.0
21121;DHT22;12519;43.318;21.898;2023-12-28T23:40:12;9.4;89.0
21121;DHT22;12519;43.318;21.898;2023-12-28T23:44:48;8.9;90.0
21121;DHT22;12519;43.318;21.898;2023-12-28T23:49:25;8.9;90.0
21121;DHT22;12519;43.318;21.898;2023-12-28T23:54:01;8.9;90.0
21121;DHT22;12519;43.318;21.898;2023-12-28T23:58:37;8.9;90.0
